sensor_id;sensor_type;location;lat;lon;timestamp;temperature;humidity
19516;DHT22;9901;47.448;7.692;2022-11-20T00:01:16;6.40;99.90
19516;DHT22;9901;47.448;7.692;2022-11-20T00:03:43;6.40;99.90
19516;DHT22;9901;47.448;7.692;2022-11-20T00:06:12;6.40;99.90
19516;DHT22;9901;47.448;7.692;2022-11-20T00:08:38;6.40;99.90
19516;DHT22;9901;47.448;7.692;2022-11-20T00:13:34;6.30;99.90
19516;DHT22;9901;47.448;7.692;2022-11-20T00:16:01;6.30;99.90
19516;DHT22;9901;47.448;7.692;2022-11-20T00:18:29;6.30;99.90
19516;DHT22;9901;47.448;7.692;2022-11-20T00:21:01;6.30;99.90
19516;DHT22;9901;47.448;7.692;2022-11-20T00:23:26;6.30;99.90
19516;DHT22;9901;47.448;7.692;2022-11-20T00:25:52;6.30;99.90
19516;DHT22;9901;47.448;7.692;2022-11-20T00:28:20;6.30;99.90
19516;DHT22;9901;47.448;7.692;2022-11-20T00:30:46;6.30;99.90
19516;DHT22;9901;47.448;7.692;2022-11-20T00:33:12;6.20;99.90
19516;DHT22;9901;47.448;7.692;2022-11-20T00:35:37;6.30;99.90
19516;DHT22;9901;47.448;7.692;2022-11-20T00:38:03;6.20;99.90
19516;DHT22;9901;47.448;7.692;2022-11-20T00:40:29;6.20;99.90
19516;DHT22;9901;47.448;7.692;2022-11-20T00:42:54;6.20;99.90
19516;DHT22;9901;47.448;7.692;2022-11-20T00:45:20;6.10;99.90
19516;DHT22;9901;47.448;7.692;2022-11-20T00:47:46;6.10;99.90
19516;DHT22;9901;47.448;7.692;2022-11-20T00:50:11;6.00;99.90
19516;DHT22;9901;47.448;7.692;2022-11-20T00:52:37;6.00;99.90
19516;DHT22;9901;47.448;7.692;2022-11-20T00:55:03;6.00;99.90
19516;DHT22;9901;47.448;7.692;2022-11-20T00:57:29;6.00;99.90
19516;DHT22;9901;47.448;7.692;2022-11-20T00:59:54;5.90;99.90
19516;DHT22;9901;47.448;7.692;2022-11-20T01:02:20;5.90;99.90
19516;DHT22;9901;47.448;7.692;2022-11-20T01:04:46;5.90;99.90
19516;DHT22;9901;47.448;7.692;2022-11-20T01:07:12;5.90;99.90
19516;DHT22;9901;47.448;7.692;2022-11-20T01:09:38;5.90;99.90
19516;DHT22;9901;47.448;7.692;2022-11-20T01:12:04;5.90;99.90
19516;DHT22;9901;47.448;7.692;2022-11-20T01:14:29;5.90;99.90
19516;DHT22;9901;47.448;7.692;2022-11-20T01:16:56;6.00;99.90
19516;DHT22;9901;47.448;7.692;2022-11-20T01:19:22;5.90;99.90
19516;DHT22;9901;47.448;7.692;2022-11-20T01:21:51;5.80;99.90
19516;DHT22;9901;47.448;7.692;2022-11-20T01:24:20;5.80;99.90
19516;DHT22;9901;47.448;7.692;2022-11-20T01:26:50;5.80;99.90
19516;DHT22;9901;47.448;7.692;2022-11-20T01:29:20;5.90;99.90
19516;DHT22;9901;47.448;7.692;2022-11-20T01:31:46;5.80;99.90
19516;DHT22;9901;47.448;7.692;2022-11-20T01:34:15;5.70;99.90
19516;DHT22;9901;47.448;7.692;2022-11-20T01:36:42;5.70;99.90
19516;DHT22;9901;47.448;7.692;2022-11-20T01:39:20;5.80;99.90
19516;DHT22;9901;47.448;7.692;2022-11-20T01:41:47;5.80;99.90
19516;DHT22;9901;47.448;7.692;2022-11-20T01:44:51;5.80;99.90
19516;DHT22;9901;47.448;7.692;2022-11-20T01:47:40;5.80;99.90
19516;DHT22;9901;47.448;7.692;2022-11-20T01:50:18;5.80;99.90
19516;DHT22;9901;47.448;7.692;2022-11-20T01:53:02;5.80;99.90
19516;DHT22;9901;47.448;7.692;2022-11-20T01:55:32;5.80;99.90
19516;DHT22;9901;47.448;7.692;2022-11-20T01:58:00;5.70;99.90
19516;DHT22;9901;47.448;7.692;2022-11-20T02:00:26;5.60;99.90
19516;DHT22;9901;47.448;7.692;2022-11-20T02:02:58;5.70;99.90
19516;DHT22;9901;47.448;7.692;2022-11-20T02:05:43;5.70;99.90
19516;DHT22;9901;47.448;7.692;2022-11-20T02:08:11;5.60;99.90
19516;DHT22;9901;47.448;7.692;2022-11-20T02:10:38;5.60;99.90
19516;DHT22;9901;47.448;7.692;2022-11-20T02:13:03;5.60;99.90
19516;DHT22;9901;47.448;7.692;2022-11-20T02:15:48;5.60;99.90
19516;DHT22;9901;47.448;7.692;2022-11-20T02:18:17;5.60;99.90
19516;DHT22;9901;47.448;7.692;2022-11-20T02:20:49;5.60;99.90
19516;DHT22;9901;47.448;7.692;2022-11-20T02:23:28;5.60;99.90
19516;DHT22;9901;47.448;7.692;2022-11-20T02:25:55;5.60;99.90
19516;DHT22;9901;47.448;7.692;2022-11-20T02:28:23;5.60;99.90
19516;DHT22;9901;47.448;7.692;2022-11-20T02:30:49;5.60;99.90
19516;DHT22;9901;47.448;7.692;2022-11-20T02:33:14;5.60;99.90
19516;DHT22;9901;47.448;7.692;2022-11-20T02:35:43;5.50;99.90
19516;DHT22;9901;47.448;7.692;2022-11-20T02:38:08;5.50;99.90
19516;DHT22;9901;47.448;7.692;2022-11-20T02:40:35;5.50;99.90
19516;DHT22;9901;47.448;7.692;2022-11-20T02:43:03;5.40;99.90
19516;DHT22;9901;47.448;7.692;2022-11-20T02:45:29;5.40;99.90
19516;DHT22;9901;47.448;7.692;2022-11-20T02:47:55;5.40;99.90
19516;DHT22;9901;47.448;7.692;2022-11-20T02:50:20;5.30;99.90
19516;DHT22;9901;47.448;7.692;2022-11-20T02:52:46;5.30;99.90
19516;DHT22;9901;47.448;7.692;2022-11-20T02:55:12;5.30;99.90
19516;DHT22;9901;47.448;7.692;2022-11-20T02:57:38;5.30;99.90
19516;DHT22;9901;47.448;7.692;2022-11-20T03:00:04;5.30;99.90
19516;DHT22;9901;47.448;7.692;2022-11-20T03:02:32;5.30;99.90
19516;DHT22;9901;47.448;7.692;2022-11-20T03:05:01;5.30;99.90
19516;DHT22;9901;47.448;7.692;2022-11-20T03:07:30;5.30;99.90
19516;DHT22;9901;47.448;7.692;2022-11-20T03:09:59;5.30;99.90
19516;DHT22;9901;47.448;7.692;2022-11-20T03:12:27;5.30;99.90
19516;DHT22;9901;47.448;7.692;2022-11-20T03:14:53;5.40;99.90
19516;DHT22;9901;47.448;7.692;2022-11-20T03:17:21;5.40;99.90
19516;DHT22;9901;47.448;7.692;2022-11-20T03:19:46;5.40;99.90
19516;DHT22;9901;47.448;7.692;2022-11-20T03:22:12;5.40;99.90
19516;DHT22;9901;47.448;7.692;2022-11-20T03:24:38;5.40;99.90
19516;DHT22;9901;47.448;7.692;2022-11-20T03:27:03;5.50;99.90
19516;DHT22;9901;47.448;7.692;2022-11-20T03:29:29;5.50;99.90
19516;DHT22;9901;47.448;7.692;2022-11-20T03:31:55;5.50;99.90
19516;DHT22;9901;47.448;7.692;2022-11-20T03:34:21;5.40;99.90
19516;DHT22;9901;47.448;7.692;2022-11-20T03:36:46;5.60;99.90
19516;DHT22;9901;47.448;7.692;2022-11-20T03:39:12;5.60;99.90
19516;DHT22;9901;47.448;7.692;2022-11-20T03:41:39;5.60;99.90
19516;DHT22;9901;47.448;7.692;2022-11-20T03:44:08;5.60;99.90
19516;DHT22;9901;47.448;7.692;2022-11-20T03:46:34;5.60;99.90
19516;DHT22;9901;47.448;7.692;2022-11-20T03:49:00;5.60;99.90
19516;DHT22;9901;47.448;7.692;2022-11-20T03:51:28;5.60;99.90
19516;DHT22;9901;47.448;7.692;2022-11-20T03:53:56;5.60;99.90
19516;DHT22;9901;47.448;7.692;2022-11-20T03:56:25;5.60;99.90
19516;DHT22;9901;47.448;7.692;2022-11-20T03:58:51;5.50;99.90
19516;DHT22;9901;47.448;7.692;2022-11-20T04:01:24;5.60;99.90
19516;DHT22;9901;47.448;7.692;2022-11-20T04:03:52;5.60;99.90
19516;DHT22;9901;47.448;7.692;2022-11-20T04:06:27;5.70;99.90
19516;DHT22;9901;47.448;7.692;2022-11-20T04:08:57;5.70;99.90
19516;DHT22;9901;47.448;7.692;2022-11-20T04:11:31;5.70;99.90
19516;DHT22;9901;47.448;7.692;2022-11-20T04:13:59;5.70;99.90
19516;DHT22;9901;47.448;7.692;2022-11-20T04:16:26;5.70;99.90
19516;DHT22;9901;47.448;7.692;2022-11-20T04:18:53;5.70;99.90
19516;DHT22;9901;47.448;7.692;2022-11-20T04:21:21;5.70;99.90
19516;DHT22;9901;47.448;7.692;2022-11-20T04:23:47;5.70;99.90
19516;DHT22;9901;47.448;7.692;2022-11-20T04:26:13;5.70;99.90
19516;DHT22;9901;47.448;7.692;2022-11-20T04:28:39;5.70;99.90
19516;DHT22;9901;47.448;7.692;2022-11-20T04:31:11;5.70;99.90
19516;DHT22;9901;47.448;7.692;2022-11-20T04:33:38;5.70;99.90
19516;DHT22;9901;47.448;7.692;2022-11-20T04:36:15;5.60;99.90
19516;DHT22;9901;47.448;7.692;2022-11-20T04:38:42;5.60;99.90
19516;DHT22;9901;47.448;7.692;2022-11-20T04:41:17;5.50;99.90
19516;DHT22;9901;47.448;7.692;2022-11-20T04:43:51;5.90;99.90
19516;DHT22;9901;47.448;7.692;2022-11-20T04:46:20;5.40;99.90
19516;DHT22;9901;47.448;7.692;2022-11-20T04:48:47;5.40;99.90
19516;DHT22;9901;47.448;7.692;2022-11-20T04:51:13;5.40;99.90
19516;DHT22;9901;47.448;7.692;2022-11-20T04:53:39;5.40;99.90
19516;DHT22;9901;47.448;7.692;2022-11-20T04:56:07;5.40;99.90
19516;DHT22;9901;47.448;7.692;2022-11-20T04:58:51;5.40;99.90
19516;DHT22;9901;47.448;7.692;2022-11-20T05:01:19;5.40;99.90
19516;DHT22;9901;47.448;7.692;2022-11-20T05:03:46;5.40;99.90
19516;DHT22;9901;47.448;7.692;2022-11-20T05:06:14;5.40;99.90
19516;DHT22;9901;47.448;7.692;2022-11-20T05:08:40;5.40;99.90
19516;DHT22;9901;47.448;7.692;2022-11-20T05:13:34;5.30;99.90
19516;DHT22;9901;47.448;7.692;2022-11-20T05:18:30;5.30;99.90
19516;DHT22;9901;47.448;7.692;2022-11-20T05:20:57;5.30;99.90
19516;DHT22;9901;47.448;7.692;2022-11-20T05:23:24;5.30;99.90
19516;DHT22;9901;47.448;7.692;2022-11-20T05:25:56;5.40;99.90
19516;DHT22;9901;47.448;7.692;2022-11-20T05:28:23;5.30;99.90
19516;DHT22;9901;47.448;7.692;2022-11-20T05:33:15;5.30;99.90
19516;DHT22;9901;47.448;7.692;2022-11-20T05:35:41;5.30;99.90
19516;DHT22;9901;47.448;7.692;2022-11-20T05:38:09;5.20;99.90
19516;DHT22;9901;47.448;7.692;2022-11-20T05:40:35;5.20;99.90
19516;DHT22;9901;47.448;7.692;2022-11-20T05:43:01;5.20;99.90
19516;DHT22;9901;47.448;7.692;2022-11-20T05:45:27;5.20;99.90
19516;DHT22;9901;47.448;7.692;2022-11-20T05:47:53;5.20;99.90
19516;DHT22;9901;47.448;7.692;2022-11-20T05:50:18;5.20;99.90
19516;DHT22;9901;47.448;7.692;2022-11-20T05:52:44;5.20;99.90
19516;DHT22;9901;47.448;7.692;2022-11-20T05:55:10;5.30;99.90
19516;DHT22;9901;47.448;7.692;2022-11-20T05:57:39;5.30;99.90
19516;DHT22;9901;47.448;7.692;2022-11-20T06:00:05;5.30;99.90
19516;DHT22;9901;47.448;7.692;2022-11-20T06:02:34;5.30;99.90
19516;DHT22;9901;47.448;7.692;2022-11-20T06:05:01;5.30;99.90
19516;DHT22;9901;47.448;7.692;2022-11-20T06:07:26;5.30;99.90
19516;DHT22;9901;47.448;7.692;2022-11-20T06:09:52;5.30;99.90
19516;DHT22;9901;47.448;7.692;2022-11-20T06:12:18;5.30;99.90
19516;DHT22;9901;47.448;7.692;2022-11-20T06:14:45;5.30;99.90
19516;DHT22;9901;47.448;7.692;2022-11-20T06:17:13;5.40;99.90
19516;DHT22;9901;47.448;7.692;2022-11-20T06:19:39;5.40;99.90
19516;DHT22;9901;47.448;7.692;2022-11-20T06:22:04;5.50;99.90
19516;DHT22;9901;47.448;7.692;2022-11-20T06:24:30;5.50;99.90
19516;DHT22;9901;47.448;7.692;2022-11-20T06:26:56;5.40;99.90
19516;DHT22;9901;47.448;7.692;2022-11-20T06:29:21;5.50;99.90
19516;DHT22;9901;47.448;7.692;2022-11-20T06:31:47;5.50;99.90
19516;DHT22;9901;47.448;7.692;2022-11-20T06:34:13;5.50;99.90
19516;DHT22;9901;47.448;7.692;2022-11-20T06:36:38;5.50;99.90
19516;DHT22;9901;47.448;7.692;2022-11-20T06:39:04;5.50;99.90
19516;DHT22;9901;47.448;7.692;2022-11-20T06:41:30;5.50;99.90
19516;DHT22;9901;47.448;7.692;2022-11-20T06:43:55;5.50;99.90
19516;DHT22;9901;47.448;7.692;2022-11-20T06:46:21;5.60;99.90
19516;DHT22;9901;47.448;7.692;2022-11-20T06:48:48;5.40;99.90
19516;DHT22;9901;47.448;7.692;2022-11-20T06:51:14;5.40;99.90
19516;DHT22;9901;47.448;7.692;2022-11-20T06:53:40;5.40;99.90
19516;DHT22;9901;47.448;7.692;2022-11-20T06:56:07;5.60;99.90
19516;DHT22;9901;47.448;7.692;2022-11-20T06:58:34;5.40;99.90
19516;DHT22;9901;47.448;7.692;2022-11-20T07:01:10;5.50;99.90
19516;DHT22;9901;47.448;7.692;2022-11-20T07:03:37;5.40;99.90
19516;DHT22;9901;47.448;7.692;2022-11-20T07:06:03;5.40;99.90
19516;DHT22;9901;47.448;7.692;2022-11-20T07:08:29;5.40;99.90
19516;DHT22;9901;47.448;7.692;2022-11-20T07:11:03;5.40;99.90
19516;DHT22;9901;47.448;7.692;2022-11-20T07:13:30;5.40;99.90
19516;DHT22;9901;47.448;7.692;2022-11-20T07:16:04;5.40;99.90
19516;DHT22;9901;47.448;7.692;2022-11-20T07:18:30;5.50;99.90
19516;DHT22;9901;47.448;7.692;2022-11-20T07:21:00;5.50;99.90
19516;DHT22;9901;47.448;7.692;2022-11-20T07:23:26;5.60;99.90
19516;DHT22;9901;47.448;7.692;2022-11-20T07:25:54;5.60;99.90
19516;DHT22;9901;47.448;7.692;2022-11-20T07:28:20;5.60;99.90
19516;DHT22;9901;47.448;7.692;2022-11-20T07:30:50;5.60;99.90
19516;DHT22;9901;47.448;7.692;2022-11-20T07:33:16;5.60;99.90
19516;DHT22;9901;47.448;7.692;2022-11-20T07:35:42;5.60;99.90
19516;DHT22;9901;47.448;7.692;2022-11-20T07:38:08;5.60;99.90
19516;DHT22;9901;47.448;7.692;2022-11-20T07:40:33;5.60;99.90
19516;DHT22;9901;47.448;7.692;2022-11-20T07:42:59;5.70;99.90
19516;DHT22;9901;47.448;7.692;2022-11-20T07:45:25;5.60;99.90
19516;DHT22;9901;47.448;7.692;2022-11-20T07:47:51;5.70;99.90
19516;DHT22;9901;47.448;7.692;2022-11-20T07:50:17;5.70;99.90
19516;DHT22;9901;47.448;7.692;2022-11-20T07:52:43;5.70;99.90
19516;DHT22;9901;47.448;7.692;2022-11-20T07:55:10;5.80;99.90
19516;DHT22;9901;47.448;7.692;2022-11-20T07:57:36;5.80;99.90
19516;DHT22;9901;47.448;7.692;2022-11-20T08:00:03;5.80;99.90
19516;DHT22;9901;47.448;7.692;2022-11-20T08:02:29;5.80;99.90
19516;DHT22;9901;47.448;7.692;2022-11-20T08:04:55;5.80;99.90
19516;DHT22;9901;47.448;7.692;2022-11-20T08:07:21;5.90;99.90
19516;DHT22;9901;47.448;7.692;2022-11-20T08:09:46;5.90;99.90
19516;DHT22;9901;47.448;7.692;2022-11-20T08:12:19;5.90;99.90
19516;DHT22;9901;47.448;7.692;2022-11-20T08:15:05;5.90;99.90
19516;DHT22;9901;47.448;7.692;2022-11-20T08:17:31;6.00;99.90
19516;DHT22;9901;47.448;7.692;2022-11-20T08:19:57;6.00;99.90
19516;DHT22;9901;47.448;7.692;2022-11-20T08:22:22;6.10;99.90
19516;DHT22;9901;47.448;7.692;2022-11-20T08:24:48;6.20;99.90
19516;DHT22;9901;47.448;7.692;2022-11-20T08:27:14;6.30;99.90
19516;DHT22;9901;47.448;7.692;2022-11-20T08:29:40;6.30;99.90
19516;DHT22;9901;47.448;7.692;2022-11-20T08:32:05;6.40;99.90
19516;DHT22;9901;47.448;7.692;2022-11-20T08:34:31;6.40;99.90
19516;DHT22;9901;47.448;7.692;2022-11-20T08:36:57;6.40;99.90
19516;DHT22;9901;47.448;7.692;2022-11-20T08:39:23;6.40;99.90
19516;DHT22;9901;47.448;7.692;2022-11-20T08:41:48;6.40;99.90
19516;DHT22;9901;47.448;7.692;2022-11-20T08:44:14;6.50;99.90
19516;DHT22;9901;47.448;7.692;2022-11-20T08:46:41;6.50;99.90
19516;DHT22;9901;47.448;7.692;2022-11-20T08:49:13;6.50;99.90
19516;DHT22;9901;47.448;7.692;2022-11-20T08:51:39;6.50;99.90
19516;DHT22;9901;47.448;7.692;2022-11-20T08:54:06;6.60;99.90
19516;DHT22;9901;47.448;7.692;2022-11-20T08:56:32;6.60;99.90
19516;DHT22;9901;47.448;7.692;2022-11-20T08:58:58;6.60;99.90
19516;DHT22;9901;47.448;7.692;2022-11-20T09:01:27;6.60;99.90
19516;DHT22;9901;47.448;7.692;2022-11-20T09:03:55;6.70;99.90
19516;DHT22;9901;47.448;7.692;2022-11-20T09:06:22;6.70;99.90
19516;DHT22;9901;47.448;7.692;2022-11-20T09:08:52;6.70;99.90
19516;DHT22;9901;47.448;7.692;2022-11-20T09:11:18;6.60;99.90
19516;DHT22;9901;47.448;7.692;2022-11-20T09:13:43;6.70;99.90
19516;DHT22;9901;47.448;7.692;2022-11-20T09:16:09;6.80;99.90
19516;DHT22;9901;47.448;7.692;2022-11-20T09:18:36;6.80;99.90
19516;DHT22;9901;47.448;7.692;2022-11-20T09:21:05;6.80;99.90
19516;DHT22;9901;47.448;7.692;2022-11-20T09:23:33;6.80;99.90
19516;DHT22;9901;47.448;7.692;2022-11-20T09:26:09;6.90;99.90
19516;DHT22;9901;47.448;7.692;2022-11-20T09:28:35;7.00;99.90
19516;DHT22;9901;47.448;7.692;2022-11-20T09:31:03;7.00;99.90
19516;DHT22;9901;47.448;7.692;2022-11-20T09:33:35;7.00;99.90
19516;DHT22;9901;47.448;7.692;2022-11-20T09:36:01;7.00;99.90
19516;DHT22;9901;47.448;7.692;2022-11-20T09:38:27;6.90;99.90
19516;DHT22;9901;47.448;7.692;2022-11-20T09:40:57;6.90;99.90
19516;DHT22;9901;47.448;7.692;2022-11-20T09:43:56;6.90;99.90
19516;DHT22;9901;47.448;7.692;2022-11-20T09:46:38;6.90;99.90
19516;DHT22;9901;47.448;7.692;2022-11-20T09:49:33;6.90;99.90
19516;DHT22;9901;47.448;7.692;2022-11-20T09:52:16;7.00;99.90
19516;DHT22;9901;47.448;7.692;2022-11-20T09:54:46;7.00;99.90
19516;DHT22;9901;47.448;7.692;2022-11-20T09:57:15;7.00;99.90
19516;DHT22;9901;47.448;7.692;2022-11-20T09:59:46;7.10;99.90
19516;DHT22;9901;47.448;7.692;2022-11-20T10:11:17;7.20;99.90
19516;DHT22;9901;47.448;7.692;2022-11-20T10:13:35;7.30;99.90
19516;DHT22;9901;47.448;7.692;2022-11-20T10:28:16;7.80;99.90
19516;DHT22;9901;47.448;7.692;2022-11-20T10:30:44;7.80;99.90
19516;DHT22;9901;47.448;7.692;2022-11-20T10:33:21;7.90;99.90
19516;DHT22;9901;47.448;7.692;2022-11-20T10:36:12;7.90;99.90
19516;DHT22;9901;47.448;7.692;2022-11-20T10:39:11;7.90;99.90
19516;DHT22;9901;47.448;7.692;2022-11-20T10:41:41;7.80;99.90
19516;DHT22;9901;47.448;7.692;2022-11-20T10:44:20;7.70;99.90
19516;DHT22;9901;47.448;7.692;2022-11-20T10:47:08;7.70;99.90
19516;DHT22;9901;47.448;7.692;2022-11-20T10:49:35;7.70;99.90
19516;DHT22;9901;47.448;7.692;2022-11-20T10:57:20;7.90;99.90
19516;DHT22;9901;47.448;7.692;2022-11-20T11:00:04;7.90;99.90
19516;DHT22;9901;47.448;7.692;2022-11-20T11:02:53;7.90;99.90
19516;DHT22;9901;47.448;7.692;2022-11-20T11:07:54;7.80;99.90
19516;DHT22;9901;47.448;7.692;2022-11-20T11:10:26;7.70;99.90
19516;DHT22;9901;47.448;7.692;2022-11-20T11:12:57;7.60;99.90
19516;DHT22;9901;47.448;7.692;2022-11-20T11:17:55;7.40;99.90
19516;DHT22;9901;47.448;7.692;2022-11-20T11:20:22;7.40;99.90
19516;DHT22;9901;47.448;7.692;2022-11-20T11:22:52;7.30;99.90
19516;DHT22;9901;47.448;7.692;2022-11-20T11:27:57;7.30;99.90
19516;DHT22;9901;47.448;7.692;2022-11-20T11:30:24;7.30;99.90
19516;DHT22;9901;47.448;7.692;2022-11-20T11:33:02;7.40;99.90
19516;DHT22;9901;47.448;7.692;2022-11-20T11:35:28;7.40;99.90
19516;DHT22;9901;47.448;7.692;2022-11-20T11:38:14;7.40;99.90
19516;DHT22;9901;47.448;7.692;2022-11-20T11:40:41;7.40;99.90
19516;DHT22;9901;47.448;7.692;2022-11-20T11:43:17;7.40;99.90
19516;DHT22;9901;47.448;7.692;2022-11-20T11:46:06;7.50;99.90
19516;DHT22;9901;47.448;7.692;2022-11-20T11:48:34;7.60;99.90
19516;DHT22;9901;47.448;7.692;2022-11-20T11:51:00;7.60;99.90
19516;DHT22;9901;47.448;7.692;2022-11-20T11:53:26;7.60;99.90
19516;DHT22;9901;47.448;7.692;2022-11-20T11:56:08;7.70;99.90
19516;DHT22;9901;47.448;7.692;2022-11-20T11:58:47;7.80;99.90
19516;DHT22;9901;47.448;7.692;2022-11-20T12:01:35;8.00;99.90
19516;DHT22;9901;47.448;7.692;2022-11-20T12:04:43;8.50;99.90
19516;DHT22;9901;47.448;7.692;2022-11-20T12:07:19;9.30;99.90
19516;DHT22;9901;47.448;7.692;2022-11-20T12:09:49;9.90;99.90
19516;DHT22;9901;47.448;7.692;2022-11-20T12:12:20;10.50;99.90
19516;DHT22;9901;47.448;7.692;2022-11-20T12:14:49;11.00;99.90
19516;DHT22;9901;47.448;7.692;2022-11-20T12:17:27;11.30;99.90
19516;DHT22;9901;47.448;7.692;2022-11-20T12:19:53;11.50;99.90
19516;DHT22;9901;47.448;7.692;2022-11-20T12:22:48;11.70;99.90
19516;DHT22;9901;47.448;7.692;2022-11-20T12:25:22;11.60;99.90
19516;DHT22;9901;47.448;7.692;2022-11-20T12:30:18;11.40;99.90
19516;DHT22;9901;47.448;7.692;2022-11-20T12:36:27;11.30;99.90
19516;DHT22;9901;47.448;7.692;2022-11-20T12:44:55;11.10;99.90
19516;DHT22;9901;47.448;7.692;2022-11-20T12:48:03;10.30;99.90
19516;DHT22;9901;47.448;7.692;2022-11-20T12:56:46;10.20;99.90
19516;DHT22;9901;47.448;7.692;2022-11-20T12:59:32;10.10;99.90
19516;DHT22;9901;47.448;7.692;2022-11-20T13:04:54;10.70;99.90
19516;DHT22;9901;47.448;7.692;2022-11-20T13:07:21;11.10;99.90
19516;DHT22;9901;47.448;7.692;2022-11-20T13:09:50;11.40;99.90
19516;DHT22;9901;47.448;7.692;2022-11-20T13:15:45;11.60;99.90
19516;DHT22;9901;47.448;7.692;2022-11-20T13:18:13;11.00;99.90
19516;DHT22;9901;47.448;7.692;2022-11-20T13:20:44;10.80;99.90
19516;DHT22;9901;47.448;7.692;2022-11-20T13:23:11;10.70;99.90
19516;DHT22;9901;47.448;7.692;2022-11-20T13:25:38;10.30;99.90
19516;DHT22;9901;47.448;7.692;2022-11-20T13:30:49;10.80;99.90
19516;DHT22;9901;47.448;7.692;2022-11-20T13:36:02;10.80;99.90
19516;DHT22;9901;47.448;7.692;2022-11-20T13:38:28;10.70;99.90
19516;DHT22;9901;47.448;7.692;2022-11-20T13:41:08;10.50;99.90
19516;DHT22;9901;47.448;7.692;2022-11-20T13:43:52;10.30;99.90
19516;DHT22;9901;47.448;7.692;2022-11-20T13:46:19;10.40;99.90
19516;DHT22;9901;47.448;7.692;2022-11-20T13:48:51;10.50;99.90
19516;DHT22;9901;47.448;7.692;2022-11-20T13:57:03;10.60;99.90
19516;DHT22;9901;47.448;7.692;2022-11-20T13:59:52;10.70;99.90
19516;DHT22;9901;47.448;7.692;2022-11-20T14:02:23;10.60;99.90
19516;DHT22;9901;47.448;7.692;2022-11-20T14:04:53;10.50;99.90
19516;DHT22;9901;47.448;7.692;2022-11-20T14:07:23;10.40;99.90
19516;DHT22;9901;47.448;7.692;2022-11-20T14:09:51;10.20;99.90
19516;DHT22;9901;47.448;7.692;2022-11-20T14:12:23;10.20;99.90
19516;DHT22;9901;47.448;7.692;2022-11-20T14:14:53;10.10;99.90
19516;DHT22;9901;47.448;7.692;2022-11-20T14:19:58;9.80;99.90
19516;DHT22;9901;47.448;7.692;2022-11-20T14:22:26;9.80;99.90
19516;DHT22;9901;47.448;7.692;2022-11-20T14:27:45;9.70;99.90
19516;DHT22;9901;47.448;7.692;2022-11-20T14:30:21;9.60;99.90
19516;DHT22;9901;47.448;7.692;2022-11-20T14:32:48;9.60;99.90
19516;DHT22;9901;47.448;7.692;2022-11-20T14:37:49;9.60;99.90
19516;DHT22;9901;47.448;7.692;2022-11-20T14:40:32;9.50;99.90
19516;DHT22;9901;47.448;7.692;2022-11-20T14:43:04;9.60;99.90
19516;DHT22;9901;47.448;7.692;2022-11-20T14:45:34;9.50;99.90
19516;DHT22;9901;47.448;7.692;2022-11-20T14:47:59;9.50;99.90
19516;DHT22;9901;47.448;7.692;2022-11-20T14:50:28;9.50;99.90
19516;DHT22;9901;47.448;7.692;2022-11-20T14:58:21;9.30;99.90
19516;DHT22;9901;47.448;7.692;2022-11-20T15:00:58;9.30;99.90
19516;DHT22;9901;47.448;7.692;2022-11-20T15:03:31;9.30;99.90
19516;DHT22;9901;47.448;7.692;2022-11-20T15:05:58;9.20;99.90
19516;DHT22;9901;47.448;7.692;2022-11-20T15:08:24;9.10;99.90
19516;DHT22;9901;47.448;7.692;2022-11-20T15:10:50;9.10;99.90
19516;DHT22;9901;47.448;7.692;2022-11-20T15:13:32;9.00;99.90
19516;DHT22;9901;47.448;7.692;2022-11-20T15:16:00;8.90;99.90
19516;DHT22;9901;47.448;7.692;2022-11-20T15:18:32;8.80;99.90
19516;DHT22;9901;47.448;7.692;2022-11-20T15:21:02;8.80;99.90
19516;DHT22;9901;47.448;7.692;2022-11-20T15:23:29;8.80;99.90
19516;DHT22;9901;47.448;7.692;2022-11-20T15:25:55;8.70;99.90
19516;DHT22;9901;47.448;7.692;2022-11-20T15:28:41;8.70;99.90
19516;DHT22;9901;47.448;7.692;2022-11-20T15:31:19;8.70;99.90
19516;DHT22;9901;47.448;7.692;2022-11-20T15:33:45;8.60;99.90
19516;DHT22;9901;47.448;7.692;2022-11-20T15:36:17;8.60;99.90
19516;DHT22;9901;47.448;7.692;2022-11-20T15:38:43;8.50;99.90
19516;DHT22;9901;47.448;7.692;2022-11-20T15:41:09;8.50;99.90
19516;DHT22;9901;47.448;7.692;2022-11-20T15:43:36;8.40;99.90
19516;DHT22;9901;47.448;7.692;2022-11-20T15:46:16;8.30;99.90
19516;DHT22;9901;47.448;7.692;2022-11-20T15:48:44;8.20;99.90
19516;DHT22;9901;47.448;7.692;2022-11-20T15:53:40;8.20;99.90
19516;DHT22;9901;47.448;7.692;2022-11-20T15:56:09;8.10;99.90
19516;DHT22;9901;47.448;7.692;2022-11-20T15:58:36;8.10;99.90
19516;DHT22;9901;47.448;7.692;2022-11-20T16:01:02;8.00;99.90
19516;DHT22;9901;47.448;7.692;2022-11-20T16:03:27;8.10;99.90
19516;DHT22;9901;47.448;7.692;2022-11-20T16:05:53;8.00;99.90
19516;DHT22;9901;47.448;7.692;2022-11-20T16:08:19;8.00;99.90
19516;DHT22;9901;47.448;7.692;2022-11-20T16:10:45;8.00;99.90
19516;DHT22;9901;47.448;7.692;2022-11-20T16:13:16;7.90;99.90
19516;DHT22;9901;47.448;7.692;2022-11-20T16:16:17;7.90;99.90
19516;DHT22;9901;47.448;7.692;2022-11-20T16:18:44;7.80;99.90
19516;DHT22;9901;47.448;7.692;2022-11-20T16:21:13;7.80;99.90
19516;DHT22;9901;47.448;7.692;2022-11-20T16:23:39;7.70;99.90
19516;DHT22;9901;47.448;7.692;2022-11-20T16:26:13;7.80;99.90
19516;DHT22;9901;47.448;7.692;2022-11-20T16:28:40;7.80;99.90
19516;DHT22;9901;47.448;7.692;2022-11-20T16:31:14;7.70;99.90
19516;DHT22;9901;47.448;7.692;2022-11-20T16:33:40;7.80;99.90
19516;DHT22;9901;47.448;7.692;2022-11-20T16:36:11;7.70;99.90
19516;DHT22;9901;47.448;7.692;2022-11-20T16:41:04;7.70;99.90
19516;DHT22;9901;47.448;7.692;2022-11-20T16:43:47;7.70;99.90
19516;DHT22;9901;47.448;7.692;2022-11-20T16:46:18;7.60;99.90
19516;DHT22;9901;47.448;7.692;2022-11-20T16:48:45;7.60;99.90
19516;DHT22;9901;47.448;7.692;2022-11-20T16:51:17;7.70;99.90
19516;DHT22;9901;47.448;7.692;2022-11-20T16:53:43;7.70;99.90
19516;DHT22;9901;47.448;7.692;2022-11-20T16:56:27;7.60;99.90
19516;DHT22;9901;47.448;7.692;2022-11-20T16:58:55;7.50;99.90
19516;DHT22;9901;47.448;7.692;2022-11-20T17:01:22;7.50;99.90
19516;DHT22;9901;47.448;7.692;2022-11-20T17:06:23;7.60;99.90
19516;DHT22;9901;47.448;7.692;2022-11-20T17:08:49;7.50;99.90
19516;DHT22;9901;47.448;7.692;2022-11-20T17:11:18;7.50;99.90
19516;DHT22;9901;47.448;7.692;2022-11-20T17:13:45;7.50;99.90
19516;DHT22;9901;47.448;7.692;2022-11-20T17:16:19;7.40;99.90
19516;DHT22;9901;47.448;7.692;2022-11-20T17:18:46;7.40;99.90
19516;DHT22;9901;47.448;7.692;2022-11-20T17:21:12;7.40;99.90
19516;DHT22;9901;47.448;7.692;2022-11-20T17:23:40;7.30;99.90
19516;DHT22;9901;47.448;7.692;2022-11-20T17:26:07;7.30;99.90
19516;DHT22;9901;47.448;7.692;2022-11-20T17:28:34;7.30;99.90
19516;DHT22;9901;47.448;7.692;2022-11-20T17:31:01;7.30;99.90
19516;DHT22;9901;47.448;7.692;2022-11-20T17:33:27;7.20;99.90
19516;DHT22;9901;47.448;7.692;2022-11-20T17:35:53;7.20;99.90
19516;DHT22;9901;47.448;7.692;2022-11-20T17:38:19;7.20;99.90
19516;DHT22;9901;47.448;7.692;2022-11-20T17:43:11;7.10;99.90
19516;DHT22;9901;47.448;7.692;2022-11-20T17:45:37;7.20;99.90
19516;DHT22;9901;47.448;7.692;2022-11-20T17:50:29;7.20;99.90
19516;DHT22;9901;47.448;7.692;2022-11-20T17:52:54;7.20;99.90
19516;DHT22;9901;47.448;7.692;2022-11-20T17:55:20;7.20;99.90
19516;DHT22;9901;47.448;7.692;2022-11-20T17:57:46;7.30;99.90
19516;DHT22;9901;47.448;7.692;2022-11-20T18:00:18;7.30;99.90